Terminal Aerodrome Forecast
Issued by NWS Blacksburg, VA

Home | Current Version | Previous Version | Text Only | Print | Product List | Glossary On
Versions: 1 2 3 4 5 6 7 8 9 10 11 12
000
FTUS41 KRNK 252320
TAFDAN
TAF
KDAN 252320Z 2600/2624 19005KT P6SM FEW050 SCT200
     FM261200 17004KT P6SM SCT035 BKN040=

USA.gov is the U.S. government's official web portal to all federal, state and local government web resources and services.